Canyon, TX (79015)

7:21 PM CST en Enero 27, 2015 (GMT -0600)
Mescalero Park | Change Station
CLOSE
Current Station
Estación meteorológica personal
Location: Amarillo, TX
Altura: 3636 ft
Estaciones meteorológicas cercanas

Alt 3636 ft 35.05 °N, 101.88 °W | Updated 1 minute ago

Despejado
Despejado
56.5 ° F
Sensación térmica 56.5 ° F
N
3.9
Viento Variable Viento desde Norte
Gusts 4.3 mph

Hoy
Alta -- | Baja -- ° F
--% Posibilidad de precipitaciones
Ayer
Alta -- | Baja -- ° F
Precip. -- pul
7:49 AM 6:11 PM
Cuarto creciente, 59% visible
Presión 30.07 pul
Visibilidad 10.0 Millas
Nubes Despejado
Punto de rocío 38 ° F
Humedad 47%
Precipitaciones 0.00 pul
Espesor de la nieve No disponible.
UV 0 de una escala de 12
Polen 6.50 de una escala de 12
Calidad del aire No disponible.
Flu Activity No disponible.
METAR KAMA 280053Z 18008KT 10SM CLR 13/01 A3012 RMK AO2 SLP182 T01330011

More Conditions Fewer Conditions

Presión 30.07 pul
Visibilidad 10.0 Millas
Nubes Despejado
Punto de rocío 38 ° F
Humedad 47%
Precipitaciones 0.00 pul
Espesor de la nieve No disponible.
UV 0 de una escala de 12
Polen 6.50 de una escala de 12
Calidad del aire No disponible.
Flu Activity No disponible.
METAR KAMA 280053Z 18008KT 10SM CLR 13/01 A3012 RMK AO2 SLP182 T01330011

More Conditions Fewer Conditions

10-Day Weather Forecast

Almanac

Astronomía

Jan. 27, 2015 Salida Puesta
Hora real
Crepúsculo civil
Crepúsculo náutico
Crepúsculo astronómico
Luna
Horas de luz
Horas de luz
Tomorrow will be .
, % of the Moon is Illuminated

Extremos de hoy

Máximos del estado Bajos del estado

Community

WunderPhotos

Upload Photos

1,791,024 ¡fotos cargadas!

WunderBlogs® & News

Nearby

Calidad del aire

  Calidad del aire Índice AQ Contaminante
Not available.

Grosos de nieve

Estación Profundido Altura

Actividad de terremotos

Ciudad Distance Mag. Tiempo y dato
Magnitud mínima muestra es 2,5.

Temperaturas de aguas costeras

Lugar Temperatura

Estaciones meteorológicas cercanas